createdAt,value
2018-08-09T00:00:19.545Z,20.64
2018-08-09T00:02:49.009Z,20.68
2018-08-09T00:05:18.474Z,20.71
2018-08-09T00:08:50.892Z,20.82
2018-08-09T00:11:20.346Z,20.67
2018-08-09T00:13:49.754Z,20.61
2018-08-09T00:16:19.186Z,20.70
2018-08-09T00:18:48.432Z,20.85
2018-08-09T00:21:17.719Z,20.84
2018-08-09T00:23:47.414Z,20.97
2018-08-09T00:26:17.026Z,20.95
2018-08-09T00:28:46.590Z,20.97
2018-08-09T00:31:17.030Z,20.78
2018-08-09T00:33:46.509Z,20.77
2018-08-09T00:36:15.778Z,20.71
2018-08-09T00:38:45.079Z,20.71
2018-08-09T00:41:14.394Z,20.68
2018-08-09T00:43:43.909Z,20.63
2018-08-09T00:46:13.309Z,20.60
2018-08-09T00:48:42.552Z,20.57
2018-08-09T00:51:11.760Z,20.51
2018-08-09T00:53:41.142Z,20.39
2018-08-09T00:56:10.430Z,20.41
2018-08-09T00:58:39.636Z,20.30
2018-08-09T01:01:09.630Z,20.35
2018-08-09T01:03:38.921Z,20.34
2018-08-09T01:06:08.149Z,20.34
2018-08-09T01:08:38.009Z,20.37
2018-08-09T01:11:07.641Z,20.36
2018-08-09T01:13:36.913Z,20.27
2018-08-09T01:16:06.171Z,20.19
2018-08-09T01:18:35.514Z,20.11
2018-08-09T01:21:04.888Z,20.19
2018-08-09T01:23:34.405Z,20.21
2018-08-09T01:26:03.703Z,20.15
2018-08-09T01:28:32.924Z,20.12
2018-08-09T01:31:02.779Z,20.18
2018-08-09T01:33:32.243Z,20.21
2018-08-09T01:36:01.541Z,20.11
2018-08-09T01:38:30.932Z,20.14
2018-08-09T01:41:00.306Z,20.08
2018-08-09T01:43:41.178Z,20.09
2018-08-09T01:46:10.525Z,20.03
2018-08-09T01:48:39.720Z,20.09
2018-08-09T01:51:09.596Z,20.14
2018-08-09T01:53:38.841Z,20.11
2018-08-09T01:56:08.057Z,20.22
2018-08-09T01:58:37.382Z,20.18
2018-08-09T02:01:06.657Z,20.30
2018-08-09T02:03:35.882Z,20.26
2018-08-09T02:06:05.980Z,20.22
2018-08-09T02:08:35.306Z,20.18
2018-08-09T02:11:04.501Z,20.15
2018-08-09T02:13:33.778Z,20.08
2018-08-09T02:16:03.144Z,19.98
2018-08-09T02:18:32.460Z,19.89
2018-08-09T02:21:02.153Z,19.80
2018-08-09T02:23:31.397Z,19.68
2018-08-09T02:26:00.907Z,19.63
2018-08-09T02:28:30.401Z,19.60
2018-08-09T02:31:00.072Z,19.54
2018-08-09T02:33:29.530Z,19.44
2018-08-09T02:35:58.998Z,19.41
2018-08-09T02:38:28.359Z,19.38
2018-08-09T02:40:57.794Z,19.37
2018-08-09T02:43:27.918Z,19.35
2018-08-09T02:45:57.219Z,19.28
2018-08-09T02:48:26.827Z,19.25
2018-08-09T02:50:56.357Z,19.24
2018-08-09T02:53:25.903Z,19.21
2018-08-09T02:55:55.462Z,19.20
2018-08-09T02:58:25.637Z,19.14
2018-08-09T03:00:55.017Z,19.15
2018-08-09T03:03:24.524Z,19.11
2018-08-09T03:05:54.850Z,19.09
2018-08-09T03:08:24.725Z,19.10
2018-08-09T03:10:54.173Z,19.08
2018-08-09T03:13:23.734Z,19.08
2018-08-09T03:15:53.077Z,19.13
2018-08-09T03:18:22.381Z,19.15
2018-08-09T03:20:52.503Z,19.14
2018-08-09T03:23:22.040Z,19.09
2018-08-09T03:25:51.701Z,19.08
2018-08-09T03:28:21.500Z,19.07
2018-08-09T03:30:51.531Z,19.00
2018-08-09T03:33:21.159Z,18.92
2018-08-09T03:35:50.822Z,18.91
2018-08-09T03:38:20.061Z,18.95
2018-08-09T03:40:50.506Z,18.99
2018-08-09T03:43:19.952Z,19.03
2018-08-09T03:45:49.688Z,19.03
2018-08-09T03:48:18.921Z,19.00
2018-08-09T03:50:48.441Z,18.97
2018-08-09T03:53:17.727Z,18.91
2018-08-09T03:55:47.030Z,18.88
2018-08-09T03:58:17.435Z,18.81
2018-08-09T04:00:48.199Z,18.88
2018-08-09T04:03:17.561Z,18.74
2018-08-09T04:05:46.857Z,18.77
2018-08-09T04:08:16.233Z,18.81
2018-08-09T04:10:46.312Z,18.81
2018-08-09T04:13:15.532Z,18.78
2018-08-09T04:15:44.936Z,18.69
2018-08-09T04:18:14.165Z,18.82
2018-08-09T04:20:43.513Z,18.92
2018-08-09T04:23:12.781Z,18.97
2018-08-09T04:25:42.033Z,18.99
2018-08-09T04:28:11.397Z,19.03
2018-08-09T04:30:40.658Z,19.10
2018-08-09T04:33:09.905Z,19.19
2018-08-09T04:35:39.458Z,19.17
2018-08-09T04:38:08.675Z,19.19
2018-08-09T04:40:37.884Z,19.25
2018-08-09T04:43:07.409Z,19.24
2018-08-09T04:45:36.817Z,19.30
2018-08-09T04:48:06.309Z,19.39
2018-08-09T04:50:36.457Z,19.36
2018-08-09T04:53:05.685Z,19.32
2018-08-09T04:55:34.954Z,19.37
2018-08-09T04:58:05.073Z,19.34
2018-08-09T05:00:34.288Z,19.40
2018-08-09T05:03:03.654Z,19.49
2018-08-09T05:05:33.559Z,19.44
2018-08-09T05:08:03.301Z,19.40
2018-08-09T05:10:32.918Z,19.51
2018-08-09T05:13:02.220Z,19.51
2018-08-09T05:15:32.479Z,19.59
2018-08-09T05:18:01.897Z,19.57
2018-08-09T05:20:32.638Z,19.62
2018-08-09T05:23:01.992Z,19.69
2018-08-09T05:25:31.320Z,19.72
2018-08-09T05:28:01.459Z,19.76
2018-08-09T05:30:30.942Z,19.72
2018-08-09T05:33:00.430Z,19.79
2018-08-09T05:35:29.758Z,19.77
2018-08-09T05:37:59.101Z,19.73
2018-08-09T05:40:28.407Z,19.86
2018-08-09T05:43:00.128Z,19.99
2018-08-09T05:45:29.455Z,20.05
2018-08-09T05:47:58.819Z,20.02
2018-08-09T05:50:28.466Z,20.15
2018-08-09T05:52:57.886Z,20.39
2018-08-09T05:55:27.260Z,20.47
2018-08-09T05:57:56.812Z,20.54
2018-08-09T06:00:26.383Z,20.59
2018-08-09T06:02:55.727Z,20.63
2018-08-09T06:05:25.312Z,20.63
2018-08-09T06:07:54.911Z,20.57
2018-08-09T06:10:24.366Z,20.81
2018-08-09T06:12:54.310Z,20.65
2018-08-09T06:15:23.662Z,20.69
2018-08-09T06:17:53.224Z,20.82
2018-08-09T06:20:23.381Z,20.96
2018-08-09T06:22:52.790Z,21.11
2018-08-09T06:25:22.584Z,21.27
2018-08-09T06:27:51.993Z,21.29
2018-08-09T06:30:22.577Z,21.43
2018-08-09T06:32:52.209Z,21.67
2018-08-09T06:35:21.861Z,21.67
2018-08-09T06:37:51.888Z,21.89
2018-08-09T06:40:21.346Z,22.07
2018-08-09T06:42:51.926Z,22.00
2018-08-09T06:45:21.602Z,22.00
2018-08-09T06:47:51.487Z,21.96
2018-08-09T06:50:21.792Z,22.07
2018-08-09T06:52:51.600Z,22.27
2018-08-09T06:55:21.948Z,22.37
2018-08-09T06:57:51.451Z,22.28
2018-08-09T07:00:21.230Z,22.35
2018-08-09T07:02:52.457Z,22.52
2018-08-09T07:05:22.606Z,22.24
2018-08-09T07:07:52.595Z,22.03
2018-08-09T07:10:22.593Z,22.17
2018-08-09T07:12:52.309Z,22.59
2018-08-09T07:15:21.795Z,22.78
2018-08-09T07:17:52.096Z,22.88
2018-08-09T07:20:21.548Z,22.88
2018-08-09T07:22:51.253Z,22.75
2018-08-09T07:25:20.787Z,22.91
2018-08-09T07:27:50.230Z,22.96
2018-08-09T07:30:19.628Z,23.01
2018-08-09T07:32:50.722Z,23.21
2018-08-09T07:35:20.113Z,23.11
2018-08-09T07:37:50.373Z,23.38
2018-08-09T07:40:19.953Z,23.24
2018-08-09T07:42:49.257Z,23.63
2018-08-09T07:45:18.832Z,24.03
2018-08-09T07:47:49.289Z,24.27
2018-08-09T07:50:18.570Z,24.30
2018-08-09T07:52:47.880Z,24.14
2018-08-09T07:55:17.353Z,24.30
2018-08-09T07:57:46.644Z,23.93
2018-08-09T08:00:17.014Z,24.00
2018-08-09T08:02:47.829Z,23.95
2018-08-09T08:05:17.082Z,23.74
2018-08-09T08:07:46.409Z,23.85
2018-08-09T08:10:15.725Z,23.82
2018-08-09T08:12:45.155Z,24.04
2018-08-09T08:15:14.453Z,24.29
2018-08-09T08:17:44.966Z,24.55
2018-08-09T08:20:14.265Z,24.49
2018-08-09T08:22:43.677Z,24.53
2018-08-09T08:25:13.145Z,24.52
2018-08-09T08:27:42.366Z,24.83
2018-08-09T08:30:13.459Z,24.55
2018-08-09T08:32:43.408Z,24.53
2018-08-09T08:35:12.809Z,24.48
2018-08-09T08:37:42.244Z,24.61
2018-08-09T08:40:13.600Z,24.41
2018-08-09T08:42:43.069Z,24.69
2018-08-09T08:45:13.840Z,24.59
2018-08-09T08:47:43.717Z,24.76
2018-08-09T08:50:13.321Z,24.90
2018-08-09T08:52:42.884Z,24.97
2018-08-09T08:55:12.785Z,24.94
2018-08-09T08:57:42.007Z,25.04
2018-08-09T09:00:12.435Z,24.78
2018-08-09T09:02:41.951Z,24.70
2018-08-09T09:05:12.649Z,24.65
2018-08-09T09:07:41.820Z,24.97
2018-08-09T09:10:12.735Z,25.15
2018-08-09T09:12:41.978Z,25.12
2018-08-09T09:15:13.712Z,25.14
2018-08-09T09:17:43.984Z,25.18
2018-08-09T09:20:16.353Z,25.49
2018-08-09T09:22:45.780Z,25.58
2018-08-09T09:25:15.083Z,25.43
2018-08-09T09:27:44.338Z,25.59
2018-08-09T09:30:15.105Z,25.76
2018-08-09T09:32:44.879Z,25.93
2018-08-09T09:35:14.386Z,26.20
2018-08-09T09:37:43.922Z,26.93
2018-08-09T09:40:13.368Z,27.63
2018-08-09T09:42:43.420Z,28.33
2018-08-09T09:45:12.759Z,27.83
2018-08-09T09:47:42.005Z,27.22
2018-08-09T09:50:12.575Z,27.01
2018-08-09T09:52:41.810Z,26.78
2018-08-09T09:55:11.137Z,27.08
2018-08-09T09:57:40.445Z,27.51
2018-08-09T10:00:15.948Z,28.19
2018-08-09T10:02:45.732Z,28.51
2018-08-09T10:05:15.370Z,29.21
2018-08-09T10:07:44.643Z,29.80
2018-08-09T10:10:13.987Z,29.05
2018-08-09T10:12:43.426Z,28.77
2018-08-09T10:15:12.936Z,29.72
2018-08-09T10:17:42.619Z,30.23
2018-08-09T10:20:11.912Z,30.45
2018-08-09T10:22:41.205Z,30.23
2018-08-09T10:25:10.815Z,29.75
2018-08-09T10:27:40.137Z,29.84
2018-08-09T10:30:09.602Z,29.46
2018-08-09T10:32:39.209Z,28.59
2018-08-09T10:35:08.613Z,28.41
2018-08-09T10:37:38.484Z,28.33
2018-08-09T10:40:08.710Z,28.39
2018-08-09T10:42:38.475Z,28.32
2018-08-09T10:45:07.797Z,29.18
2018-08-09T10:47:37.507Z,29.16
2018-08-09T10:50:07.730Z,28.69
2018-08-09T10:55:21.733Z,27.66
2018-08-09T10:57:51.453Z,27.65
2018-08-09T11:00:21.451Z,27.85
2018-08-09T11:02:53.402Z,28.40
2018-08-09T11:05:24.023Z,27.96
2018-08-09T11:07:53.561Z,27.93
2018-08-09T11:10:23.548Z,27.64
2018-08-09T11:12:53.798Z,28.11
2018-08-09T11:15:24.487Z,27.07
2018-08-09T11:17:54.299Z,26.71
2018-08-09T11:20:23.842Z,27.11
2018-08-09T11:22:53.572Z,27.30
2018-08-09T11:25:23.438Z,26.55
2018-08-09T11:27:53.318Z,26.75
2018-08-09T11:30:23.178Z,26.89
2018-08-09T11:32:53.046Z,27.09
2018-08-09T11:35:22.500Z,26.66
2018-08-09T11:37:52.493Z,26.75
2018-08-09T11:40:23.104Z,27.04
2018-08-09T11:42:52.487Z,27.39
2018-08-09T11:45:22.805Z,27.15
2018-08-09T11:47:53.284Z,27.36
2018-08-09T11:50:22.791Z,27.52
2018-08-09T11:52:52.492Z,27.15
2018-08-09T11:55:21.937Z,27.21
2018-08-09T11:57:51.305Z,27.66
2018-08-09T12:00:21.681Z,27.96
2018-08-09T12:02:51.132Z,27.97
2018-08-09T12:05:21.351Z,28.21
2018-08-09T12:07:50.778Z,28.34
2018-08-09T12:10:20.444Z,27.68
2018-08-09T12:12:50.389Z,27.76
2018-08-09T12:15:19.930Z,27.94
2018-08-09T12:17:49.308Z,27.64
2018-08-09T12:20:18.622Z,26.89
2018-08-09T12:22:48.685Z,26.74
2018-08-09T12:25:17.925Z,26.24
2018-08-09T12:27:47.262Z,26.25
2018-08-09T12:30:18.416Z,26.48
2018-08-09T12:32:47.813Z,26.61
2018-08-09T12:35:17.831Z,26.85
2018-08-09T12:37:47.293Z,27.15
2018-08-09T12:40:16.688Z,27.23
2018-08-09T12:42:46.749Z,27.37
2018-08-09T12:45:16.253Z,27.28
2018-08-09T12:47:45.640Z,27.30
2018-08-09T12:50:15.349Z,27.47
2018-08-09T12:52:45.433Z,27.60
2018-08-09T12:55:15.300Z,27.67
2018-08-09T12:57:44.672Z,27.95
2018-08-09T13:00:14.760Z,28.08
2018-08-09T13:02:43.976Z,27.96
2018-08-09T13:05:13.388Z,27.97
2018-08-09T13:07:43.278Z,28.25
2018-08-09T13:10:13.539Z,28.54
2018-08-09T13:12:42.815Z,28.19
2018-08-09T13:15:13.708Z,27.77
2018-08-09T13:17:44.573Z,27.65
2018-08-09T13:20:17.970Z,27.54
2018-08-09T13:22:49.871Z,27.65
2018-08-09T13:25:19.298Z,27.82
2018-08-09T13:27:49.067Z,27.59
2018-08-09T13:30:19.083Z,27.59
2018-08-09T13:32:48.381Z,27.83
2018-08-09T13:35:17.815Z,27.94
2018-08-09T13:37:47.234Z,27.82
2018-08-09T13:40:18.390Z,27.82
2018-08-09T13:42:47.734Z,28.38
2018-08-09T13:45:17.672Z,29.46
2018-08-09T13:47:47.007Z,30.32
2018-08-09T13:50:16.289Z,30.68
2018-08-09T13:52:46.166Z,29.89
2018-08-09T13:55:15.913Z,29.94
2018-08-09T13:57:45.497Z,29.29
2018-08-09T14:00:15.058Z,29.21
2018-08-09T14:02:45.677Z,29.02
2018-08-09T14:05:14.937Z,28.91
2018-08-09T14:07:45.335Z,28.61
2018-08-09T14:10:14.630Z,28.77
2018-08-09T14:12:44.078Z,28.81
2018-08-09T14:15:15.149Z,28.68
2018-08-09T14:17:44.473Z,28.54
2018-08-09T14:20:16.754Z,28.53
2018-08-09T14:22:46.152Z,28.82
2018-08-09T14:25:15.559Z,28.85
2018-08-09T14:27:45.389Z,28.92
2018-08-09T14:30:16.092Z,28.76
2018-08-09T14:32:47.357Z,28.68
2018-08-09T14:35:17.446Z,28.62
2018-08-09T14:37:47.896Z,28.33
2018-08-09T14:40:17.356Z,28.78
2018-08-09T14:42:47.329Z,29.16
2018-08-09T14:45:17.150Z,29.73
2018-08-09T14:47:46.641Z,30.13
2018-08-09T14:50:16.356Z,30.84
2018-08-09T14:52:45.800Z,31.11
2018-08-09T14:55:15.348Z,31.31
2018-08-09T14:57:44.686Z,31.13
2018-08-09T15:00:17.543Z,31.46
2018-08-09T15:02:50.209Z,31.71
2018-08-09T15:05:20.517Z,31.00
2018-08-09T15:07:51.048Z,30.24
2018-08-09T15:10:20.578Z,29.70
2018-08-09T15:12:49.957Z,29.21
2018-08-09T15:15:20.502Z,29.06
2018-08-09T15:17:52.676Z,28.99
2018-08-09T15:20:23.358Z,28.77
2018-08-09T15:22:53.486Z,29.50
2018-08-09T15:25:23.353Z,30.34
2018-08-09T15:27:54.048Z,30.53
2018-08-09T15:30:23.982Z,30.20
2018-08-09T15:32:53.843Z,29.61
2018-08-09T15:35:24.686Z,29.87
2018-08-09T15:37:55.878Z,29.76
2018-08-09T15:40:25.395Z,29.65
2018-08-09T15:42:54.927Z,29.60
2018-08-09T15:45:25.721Z,29.27
2018-08-09T15:47:56.287Z,29.64
2018-08-09T15:50:25.747Z,29.91
2018-08-09T15:52:55.852Z,30.04
2018-08-09T15:55:25.249Z,30.01
2018-08-09T15:57:55.352Z,29.69
2018-08-09T16:00:25.174Z,29.45
2018-08-09T16:02:55.289Z,29.51
2018-08-09T16:05:25.384Z,29.31
2018-08-09T16:07:56.954Z,28.86
2018-08-09T16:10:27.102Z,28.96
2018-08-09T16:12:56.644Z,28.92
2018-08-09T16:15:27.354Z,28.51
2018-08-09T16:17:57.157Z,28.06
2018-08-09T16:20:26.692Z,27.85
2018-08-09T16:22:57.693Z,27.66
2018-08-09T16:25:27.633Z,27.20
2018-08-09T16:27:57.215Z,27.36
2018-08-09T16:30:29.430Z,27.39
2018-08-09T16:32:58.852Z,27.52
2018-08-09T16:35:28.557Z,27.43
2018-08-09T16:37:58.662Z,27.19
2018-08-09T16:40:28.408Z,26.94
2018-08-09T16:42:58.673Z,26.70
2018-08-09T16:45:30.140Z,26.75
2018-08-09T16:47:59.996Z,26.52
2018-08-09T16:50:33.378Z,26.49
2018-08-09T16:53:04.589Z,26.51
2018-08-09T16:55:34.857Z,26.39
2018-08-09T16:58:04.906Z,26.36
2018-08-09T17:00:35.626Z,26.38
2018-08-09T17:03:05.083Z,26.28
2018-08-09T17:05:34.496Z,26.18
2018-08-09T17:08:05.288Z,26.27
2018-08-09T17:10:34.780Z,26.24
2018-08-09T17:13:04.090Z,26.12
2018-08-09T17:15:33.960Z,26.06
2018-08-09T17:18:03.307Z,26.06
2018-08-09T17:20:33.755Z,26.04
2018-08-09T17:23:04.695Z,26.01
2018-08-09T17:25:33.996Z,26.05
2018-08-09T17:28:03.395Z,25.89
2018-08-09T17:30:33.203Z,25.79
2018-08-09T17:33:03.799Z,25.77
2018-08-09T17:35:33.130Z,25.79
2018-08-09T17:38:02.592Z,25.67
2018-08-09T17:40:33.364Z,25.65
2018-08-09T17:43:04.296Z,25.53
2018-08-09T17:45:34.776Z,25.60
2018-08-09T17:48:05.813Z,25.50
2018-08-09T17:50:35.287Z,25.51
2018-08-09T17:53:07.622Z,25.51
2018-08-09T17:55:36.858Z,25.43
2018-08-09T17:58:06.347Z,25.43
2018-08-09T18:00:36.421Z,25.43
2018-08-09T18:03:06.025Z,25.46
2018-08-09T18:05:35.556Z,25.45
2018-08-09T18:08:06.741Z,25.40
2018-08-09T18:10:38.137Z,25.40
2018-08-09T18:13:07.415Z,25.43
2018-08-09T18:15:36.660Z,25.48
2018-08-09T18:18:06.257Z,25.44
2018-08-09T18:20:36.945Z,25.36
2018-08-09T18:23:06.408Z,25.33
2018-08-09T18:25:35.734Z,25.32
2018-08-09T18:28:05.597Z,25.29
2018-08-09T18:30:34.983Z,25.12
2018-08-09T18:33:04.413Z,24.85
2018-08-09T18:35:33.697Z,24.45
2018-08-09T18:38:04.308Z,24.10
2018-08-09T18:40:34.829Z,23.67
2018-08-09T18:43:04.322Z,23.43
2018-08-09T18:45:34.256Z,22.86
2018-08-09T18:48:04.709Z,22.30
2018-08-09T18:50:34.943Z,21.96
2018-08-09T18:53:04.345Z,21.72
2018-08-09T18:55:33.726Z,21.61
2018-08-09T18:58:03.697Z,21.51
2018-08-09T19:00:33.865Z,21.28
2018-08-09T19:03:03.159Z,21.21
2018-08-09T19:05:34.526Z,21.15
2018-08-09T19:08:04.199Z,21.15
2018-08-09T19:10:35.713Z,21.39
2018-08-09T19:13:05.104Z,21.32
2018-08-09T19:15:40.203Z,21.41
2018-08-09T19:18:09.559Z,21.55
2018-08-09T19:20:40.054Z,21.47
2018-08-09T19:23:09.529Z,21.56
2018-08-09T19:25:38.994Z,21.66
2018-08-09T19:28:09.877Z,21.64
2018-08-09T19:30:46.590Z,21.73
2018-08-09T19:33:16.652Z,21.85
2018-08-09T19:35:51.963Z,21.90
2018-08-09T19:38:23.426Z,21.87
2018-08-09T19:40:53.518Z,21.89
2018-08-09T19:43:24.312Z,21.91
2018-08-09T19:46:00.524Z,21.81
2018-08-09T19:48:44.917Z,21.81
2018-08-09T19:51:16.165Z,21.91
2018-08-09T19:53:45.457Z,21.88
2018-08-09T19:56:15.275Z,21.88
2018-08-09T19:58:45.295Z,21.83
2018-08-09T20:01:14.590Z,21.90
2018-08-09T20:03:45.409Z,21.74
2018-08-09T20:06:16.555Z,21.80
2018-08-09T20:08:46.761Z,21.83
2018-08-09T20:11:17.706Z,21.75
2018-08-09T20:13:47.291Z,21.69
2018-08-09T20:16:16.585Z,21.64
2018-08-09T20:18:46.121Z,21.58
2018-08-09T20:21:15.440Z,21.55
2018-08-09T20:23:46.520Z,21.55
2018-08-09T20:26:16.101Z,21.51
2018-08-09T20:28:51.037Z,21.49
2018-08-09T20:31:20.354Z,21.44
2018-08-09T20:33:50.263Z,21.44
2018-08-09T20:36:20.345Z,21.39
2018-08-09T20:38:49.988Z,21.37
2018-08-09T20:41:19.371Z,21.33
2018-08-09T20:43:50.440Z,21.33
2018-08-09T20:46:19.907Z,21.38
2018-08-09T20:48:49.499Z,21.39
2018-08-09T20:51:18.888Z,21.35
2018-08-09T20:53:48.283Z,21.28
2018-08-09T20:56:17.565Z,21.30
2018-08-09T20:58:46.951Z,21.30
2018-08-09T21:01:16.417Z,21.27
2018-08-09T21:03:45.678Z,21.23
2018-08-09T21:06:15.033Z,21.20
2018-08-09T21:08:44.454Z,21.16
2018-08-09T21:11:13.985Z,21.17
2018-08-09T21:13:43.378Z,21.12
2018-08-09T21:16:14.213Z,21.13
2018-08-09T21:18:43.453Z,21.11
2018-08-09T21:21:12.714Z,21.08
2018-08-09T21:23:42.520Z,21.11
2018-08-09T21:26:11.833Z,21.09
2018-08-09T21:28:41.078Z,21.10
2018-08-09T21:31:10.442Z,21.09
2018-08-09T21:33:39.841Z,21.07
2018-08-09T21:36:10.186Z,21.08
2018-08-09T21:46:12.119Z,21.02
2018-08-09T21:48:41.430Z,21.05
2018-08-09T21:51:11.481Z,21.07
2018-08-09T21:53:40.932Z,21.04
2018-08-09T21:56:10.392Z,21.06
2018-08-09T21:58:39.714Z,21.01
2018-08-09T22:01:09.470Z,21.03
2018-08-09T22:03:41.755Z,21.02
2018-08-09T22:06:16.646Z,21.01
2018-08-09T22:08:51.274Z,21.02
2018-08-09T22:11:25.966Z,21.00
2018-08-09T22:14:01.017Z,21.00
2018-08-09T22:16:35.779Z,20.99
2018-08-09T22:19:10.306Z,21.02
2018-08-09T22:21:44.914Z,20.98
2018-08-09T22:24:14.173Z,21.00
2018-08-09T22:26:43.449Z,21.00
2018-08-09T22:29:13.419Z,21.00
2018-08-09T22:31:42.657Z,20.96
2018-08-09T22:34:12.535Z,20.93
2018-08-09T22:36:41.921Z,20.96
2018-08-09T22:39:11.228Z,20.97
2018-08-09T22:41:40.475Z,21.01
2018-08-09T22:44:10.199Z,21.03
2018-08-09T22:46:39.648Z,20.97
2018-08-09T22:49:08.931Z,20.99
2018-08-09T22:51:39.167Z,21.01
2018-08-09T22:54:08.568Z,20.98
2018-08-09T22:56:37.837Z,21.02
2018-08-09T22:59:07.892Z,20.99
2018-08-09T23:01:37.196Z,21.02
2018-08-09T23:04:06.549Z,21.05
2018-08-09T23:06:35.868Z,21.02
2018-08-09T23:09:08.558Z,21.09
2018-08-09T23:11:38.416Z,21.15
2018-08-09T23:14:07.804Z,21.18
2018-08-09T23:16:37.160Z,21.20
2018-08-09T23:19:06.565Z,21.21
2018-08-09T23:21:35.869Z,21.17
2018-08-09T23:24:05.264Z,21.16
2018-08-09T23:26:35.948Z,21.18
2018-08-09T23:29:05.463Z,21.24
2018-08-09T23:31:34.787Z,21.19
2018-08-09T23:34:04.179Z,21.21
2018-08-09T23:36:33.542Z,21.19
2018-08-09T23:39:02.889Z,21.22
2018-08-09T23:41:33.434Z,21.19
2018-08-09T23:44:02.737Z,21.18
2018-08-09T23:46:32.093Z,21.15
2018-08-09T23:49:02.235Z,21.14
2018-08-09T23:51:31.747Z,21.13
2018-08-09T23:54:01.082Z,21.08
2018-08-09T23:56:30.965Z,21.09
2018-08-09T23:59:00.372Z,21.13
